createdAt,value
2019-05-01T00:00:27.463Z,17.67
2019-05-01T00:03:00.357Z,16.80
2019-05-01T00:08:03.472Z,15.95
2019-05-01T00:10:33.310Z,16.67
2019-05-01T00:13:03.482Z,15.72
2019-05-01T00:15:35.029Z,17.02
2019-05-01T00:18:04.874Z,16.65
2019-05-01T00:20:34.531Z,16.80
2019-05-01T00:23:06.711Z,15.83
2019-05-01T00:25:36.541Z,16.55
2019-05-01T00:28:07.899Z,16.05
2019-05-01T00:30:37.854Z,16.00
2019-05-01T00:33:07.642Z,16.23
2019-05-01T00:35:37.371Z,16.27
2019-05-01T00:38:07.130Z,16.82
2019-05-01T00:40:36.924Z,17.12
2019-05-01T00:43:06.645Z,16.70
2019-05-01T00:45:36.370Z,15.90
2019-05-01T00:48:06.073Z,17.02
2019-05-01T00:50:36.280Z,16.97
2019-05-01T00:53:06.030Z,15.93
2019-05-01T00:55:37.464Z,17.98
2019-05-01T01:00:47.922Z,17.40
2019-05-01T01:03:17.591Z,16.37
2019-05-01T01:05:47.363Z,17.35
2019-05-01T01:08:17.491Z,16.57
2019-05-01T01:10:47.197Z,16.40
2019-05-01T01:13:16.846Z,18.05
2019-05-01T01:15:46.411Z,16.82
2019-05-01T01:18:16.053Z,18.00
2019-05-01T01:20:45.928Z,16.90
2019-05-01T01:23:15.924Z,15.93
2019-05-01T01:25:45.629Z,16.35
2019-05-01T01:28:15.239Z,16.57
2019-05-01T01:30:55.755Z,16.75
2019-05-01T01:33:16.391Z,16.37
2019-05-01T01:35:46.214Z,16.80
2019-05-01T01:38:15.896Z,16.90
2019-05-01T01:40:46.257Z,16.20
2019-05-01T01:43:34.631Z,17.77
2019-05-01T01:46:06.599Z,15.80
2019-05-01T01:48:36.644Z,15.72
2019-05-01T01:51:08.813Z,16.65
2019-05-01T01:53:38.597Z,16.97
2019-05-01T01:56:08.598Z,17.52
2019-05-01T01:58:38.889Z,17.32
2019-05-01T02:01:16.216Z,17.27
2019-05-01T02:03:50.119Z,15.60
2019-05-01T02:06:20.109Z,16.97
2019-05-01T02:08:56.209Z,17.57
2019-05-01T02:13:51.755Z,16.77
2019-05-01T02:16:21.479Z,17.02
2019-05-01T02:18:53.784Z,16.80
2019-05-01T02:21:23.594Z,15.60
2019-05-01T02:23:54.804Z,16.90
2019-05-01T02:26:26.406Z,16.82
2019-05-01T02:29:02.156Z,17.42
2019-05-01T02:31:36.810Z,16.50
2019-05-01T02:34:07.193Z,16.82
2019-05-01T02:36:38.636Z,18.52
2019-05-01T02:41:41.858Z,16.23
2019-05-01T02:44:20.638Z,17.27
2019-05-01T02:46:56.208Z,17.37
2019-05-01T02:49:37.788Z,17.73
2019-05-01T02:54:39.645Z,16.62
2019-05-01T02:57:18.834Z,17.05
2019-05-01T02:59:51.849Z,17.57
2019-05-01T03:02:25.141Z,17.17
2019-05-01T03:04:55.719Z,17.20
2019-05-01T03:07:27.920Z,17.32
2019-05-01T03:09:57.898Z,17.10
2019-05-01T03:12:30.943Z,18.60
2019-05-01T03:15:03.731Z,16.82
2019-05-01T03:17:45.847Z,17.55
2019-05-01T03:20:26.724Z,19.17
2019-05-01T03:23:13.712Z,18.25
2019-05-01T03:25:43.980Z,17.40
2019-05-01T03:28:14.200Z,18.17
2019-05-01T03:30:44.197Z,20.08
2019-05-01T03:33:14.341Z,19.00
2019-05-01T03:35:44.466Z,18.98
2019-05-01T03:38:14.222Z,19.27
2019-05-01T03:40:45.868Z,18.95
2019-05-01T03:43:15.641Z,18.05
2019-05-01T03:45:45.561Z,19.05
2019-05-01T03:48:16.266Z,20.00
2019-05-01T03:50:47.189Z,19.95
2019-05-01T03:53:20.589Z,19.30
2019-05-01T03:55:50.585Z,18.07
2019-05-01T03:58:20.905Z,20.70
2019-05-01T04:00:58.311Z,21.82
2019-05-01T04:03:36.069Z,19.00
2019-05-01T04:06:06.002Z,21.17
2019-05-01T04:08:36.426Z,20.12
2019-05-01T04:11:06.353Z,20.35
2019-05-01T04:13:36.374Z,18.75
2019-05-01T04:16:07.281Z,18.20
2019-05-01T04:18:37.066Z,18.37
2019-05-01T04:21:08.682Z,19.10
2019-05-01T04:23:42.316Z,19.40
2019-05-01T04:26:12.302Z,19.82
2019-05-01T04:28:47.283Z,18.75
2019-05-01T04:31:25.014Z,19.23
2019-05-01T04:34:08.952Z,18.07
2019-05-01T04:36:40.541Z,18.60
2019-05-01T04:39:10.345Z,21.17
2019-05-01T04:41:40.433Z,20.00
2019-05-01T04:44:10.257Z,20.52
2019-05-01T04:46:40.172Z,22.80
2019-05-01T04:49:09.931Z,22.98
2019-05-01T04:51:40.190Z,21.60
2019-05-01T04:54:10.128Z,23.42
2019-05-01T04:56:40.223Z,22.90
2019-05-01T04:59:09.982Z,22.77
2019-05-01T05:01:56.809Z,22.07
2019-05-01T05:04:26.156Z,24.55
2019-05-01T05:06:56.039Z,25.23
2019-05-01T05:09:45.917Z,20.85
2019-05-01T05:12:23.945Z,21.82
2019-05-01T05:14:55.455Z,23.73
2019-05-01T05:17:27.039Z,21.97
2019-05-01T05:19:57.211Z,23.15
2019-05-01T05:22:28.153Z,22.98
2019-05-01T05:24:57.860Z,23.42
2019-05-01T05:27:29.024Z,21.10
2019-05-01T05:29:59.066Z,21.85
2019-05-01T05:32:30.263Z,19.20
2019-05-01T05:35:01.717Z,20.25
2019-05-01T05:37:34.492Z,20.77
2019-05-01T05:40:05.370Z,21.40
2019-05-01T05:42:35.400Z,20.15
2019-05-01T05:45:07.756Z,22.17
2019-05-01T05:47:38.055Z,20.27
2019-05-01T05:50:09.509Z,20.70
2019-05-01T05:55:17.450Z,19.77
2019-05-01T05:57:57.354Z,20.92
2019-05-01T06:00:30.021Z,19.60
2019-05-01T06:03:04.292Z,19.87
2019-05-01T06:05:39.756Z,20.17
2019-05-01T06:08:13.701Z,19.37
2019-05-01T06:10:53.566Z,18.92
2019-05-01T06:13:23.192Z,18.15
2019-05-01T06:16:05.180Z,19.50
2019-05-01T06:18:42.413Z,20.48
2019-05-01T06:21:14.130Z,20.20
2019-05-01T06:24:06.136Z,18.75
2019-05-01T06:26:37.070Z,20.10
2019-05-01T06:29:03.806Z,19.00
2019-05-01T06:31:34.219Z,20.43
2019-05-01T06:34:04.188Z,20.37
2019-05-01T06:36:36.986Z,21.02
2019-05-01T06:39:11.980Z,20.02
2019-05-01T06:41:43.082Z,19.82
2019-05-01T06:44:15.377Z,19.27
2019-05-01T06:47:04.975Z,20.75
2019-05-01T06:49:40.678Z,19.30
2019-05-01T06:52:13.378Z,19.52
2019-05-01T06:54:43.190Z,19.07
2019-05-01T06:57:13.598Z,18.40
2019-05-01T06:59:43.782Z,19.00
2019-05-01T07:02:16.077Z,18.65
2019-05-01T07:04:51.032Z,17.87
2019-05-01T07:07:25.456Z,18.92
2019-05-01T07:09:56.513Z,18.27
2019-05-01T07:12:28.394Z,19.37
2019-05-01T07:15:00.198Z,17.77
2019-05-01T07:17:30.229Z,17.65
2019-05-01T07:20:04.863Z,17.45
2019-05-01T07:22:37.032Z,18.17
2019-05-01T07:25:08.749Z,17.67
2019-05-01T07:27:38.507Z,18.73
2019-05-01T07:30:10.541Z,18.17
2019-05-01T07:32:41.101Z,19.05
2019-05-01T07:35:12.026Z,18.42
2019-05-01T07:37:42.002Z,17.48
2019-05-01T07:40:12.228Z,18.27
2019-05-01T07:42:49.817Z,18.52
2019-05-01T07:45:34.146Z,18.90
2019-05-01T07:48:05.569Z,18.92
2019-05-01T07:50:36.886Z,18.87
2019-05-01T07:53:08.172Z,19.15
2019-05-01T07:55:38.067Z,18.50
2019-05-01T07:58:10.350Z,18.27
2019-05-01T08:00:48.543Z,18.27
2019-05-01T08:03:18.352Z,18.62
2019-05-01T08:05:48.163Z,18.75
2019-05-01T08:08:18.043Z,17.95
2019-05-01T08:10:48.007Z,17.10
2019-05-01T08:13:17.756Z,16.55
2019-05-01T08:15:47.485Z,16.85
2019-05-01T08:18:24.086Z,15.90
2019-05-01T08:21:13.344Z,16.73
2019-05-01T08:23:47.240Z,17.92
2019-05-01T08:26:15.721Z,16.95
2019-05-01T08:28:49.858Z,16.55
2019-05-01T08:31:37.598Z,17.07
2019-05-01T08:34:09.436Z,15.48
2019-05-01T08:36:42.641Z,17.05
2019-05-01T08:39:12.396Z,16.67
2019-05-01T08:41:42.033Z,16.12
2019-05-01T08:44:11.835Z,14.58
2019-05-01T08:46:54.732Z,14.85
2019-05-01T08:49:31.481Z,14.68
2019-05-01T08:52:04.813Z,15.03
2019-05-01T08:54:33.624Z,14.07
2019-05-01T08:57:04.626Z,14.45
2019-05-01T08:59:35.880Z,15.08
2019-05-01T09:02:09.970Z,15.55
2019-05-01T09:04:39.341Z,16.25
2019-05-01T09:07:09.453Z,15.45
2019-05-01T09:09:45.159Z,16.57
2019-05-01T09:14:41.422Z,16.12
2019-05-01T09:17:11.303Z,17.57
2019-05-01T09:19:42.999Z,16.80
2019-05-01T09:22:13.442Z,16.50
2019-05-01T09:24:43.227Z,16.07
2019-05-01T09:27:28.938Z,16.82
2019-05-01T09:30:04.453Z,16.80
2019-05-01T09:32:34.178Z,17.00
2019-05-01T09:35:15.043Z,17.35
2019-05-01T09:37:36.696Z,16.62
2019-05-01T09:40:09.254Z,17.32
2019-05-01T09:42:41.431Z,17.35
2019-05-01T09:45:11.665Z,18.17
2019-05-01T09:47:41.530Z,16.23
2019-05-01T09:50:12.165Z,18.37
2019-05-01T09:52:59.819Z,19.25
2019-05-01T09:55:32.015Z,18.32
2019-05-01T09:58:02.857Z,18.20
2019-05-01T10:00:33.581Z,18.65
2019-05-01T10:03:03.379Z,18.20
2019-05-01T10:05:37.983Z,17.02
2019-05-01T10:08:05.703Z,18.32
2019-05-01T10:10:37.029Z,17.55
2019-05-01T10:13:07.370Z,17.52
2019-05-01T10:15:37.120Z,18.97
2019-05-01T10:18:06.833Z,18.35
2019-05-01T10:20:36.611Z,18.12
2019-05-01T10:23:07.896Z,17.10
2019-05-01T10:25:47.413Z,19.50
2019-05-01T10:28:17.853Z,19.75
2019-05-01T10:30:58.667Z,16.30
2019-05-01T10:33:42.304Z,29.10
2019-05-01T10:36:32.958Z,17.25
2019-05-01T10:39:02.946Z,19.60
2019-05-01T10:41:34.881Z,18.52
2019-05-01T10:46:37.622Z,18.15
2019-05-01T10:49:07.426Z,18.48
2019-05-01T10:51:37.282Z,18.05
2019-05-01T10:54:08.821Z,17.95
2019-05-01T10:56:38.765Z,19.23
2019-05-01T10:59:08.607Z,18.48
2019-05-01T11:01:45.833Z,17.12
2019-05-01T11:04:16.537Z,18.95
2019-05-01T11:06:46.553Z,18.05
2019-05-01T11:09:16.402Z,18.48
2019-05-01T11:11:46.217Z,19.20
2019-05-01T11:14:15.985Z,19.55
2019-05-01T11:16:45.755Z,19.77
2019-05-01T11:19:15.486Z,20.00
2019-05-01T11:21:45.412Z,19.35
2019-05-01T11:24:15.163Z,17.85
2019-05-01T11:26:45.292Z,16.87
2019-05-01T11:29:15.168Z,17.65
2019-05-01T11:31:46.572Z,17.17
2019-05-01T11:34:18.061Z,18.92
2019-05-01T11:37:07.743Z,18.35
2019-05-01T11:39:42.561Z,17.25
2019-05-01T11:42:15.740Z,17.92
2019-05-01T11:44:45.543Z,18.15
2019-05-01T11:47:18.888Z,17.07
2019-05-01T11:49:48.798Z,17.70
2019-05-01T11:52:22.020Z,18.40
2019-05-01T11:55:01.215Z,18.25
2019-05-01T11:57:34.503Z,16.77
2019-05-01T12:00:10.201Z,17.92
2019-05-01T12:02:40.063Z,19.20
2019-05-01T12:05:11.538Z,18.05
2019-05-01T12:07:44.088Z,17.05
2019-05-01T12:10:16.329Z,19.05
2019-05-01T12:12:46.607Z,18.60
2019-05-01T12:15:17.153Z,19.53
2019-05-01T12:17:48.701Z,18.48
2019-05-01T12:20:22.061Z,18.10
2019-05-01T12:22:52.005Z,18.45
2019-05-01T12:25:21.858Z,18.05
2019-05-01T12:27:52.972Z,18.05
2019-05-01T12:32:51.659Z,19.10
2019-05-01T12:35:21.614Z,18.25
2019-05-01T12:37:55.209Z,18.98
2019-05-01T12:40:24.474Z,19.70
2019-05-01T12:43:00.468Z,18.12
2019-05-01T12:45:30.310Z,18.42
2019-05-01T12:48:01.814Z,18.37
2019-05-01T12:50:35.365Z,18.00
2019-05-01T12:53:07.926Z,17.42
2019-05-01T12:55:48.085Z,17.67
2019-05-01T12:58:20.178Z,18.12
2019-05-01T13:00:52.761Z,21.20
2019-05-01T13:03:23.937Z,18.45
2019-05-01T13:05:59.062Z,17.27
2019-05-01T13:08:29.364Z,18.25
2019-05-01T13:11:00.170Z,17.27
2019-05-01T13:13:29.956Z,16.75
2019-05-01T13:15:59.746Z,19.77
2019-05-01T13:18:29.485Z,19.42
2019-05-01T13:20:59.276Z,19.52
2019-05-01T13:23:29.122Z,20.72
2019-05-01T13:26:00.653Z,17.62
2019-05-01T13:28:35.002Z,18.17
2019-05-01T13:31:19.164Z,19.00
2019-05-01T13:33:50.026Z,19.20
2019-05-01T13:36:19.830Z,19.73
2019-05-01T13:38:49.588Z,19.37
2019-05-01T13:41:20.977Z,18.10
2019-05-01T13:43:52.495Z,17.55
2019-05-01T13:46:22.329Z,18.55
2019-05-01T13:48:53.091Z,19.57
2019-05-01T13:51:22.933Z,18.95
2019-05-01T13:53:52.901Z,18.50
2019-05-01T13:56:22.982Z,16.52
2019-05-01T13:58:52.743Z,18.63
2019-05-01T14:01:24.145Z,18.73
2019-05-01T14:03:54.030Z,18.42
2019-05-01T14:06:23.903Z,17.30
2019-05-01T14:08:53.582Z,17.62
2019-05-01T14:11:23.208Z,18.27
2019-05-01T14:13:53.064Z,17.48
2019-05-01T14:16:22.799Z,16.90
2019-05-01T14:18:53.240Z,17.32
2019-05-01T14:21:30.734Z,16.65
2019-05-01T14:24:17.303Z,16.73
2019-05-01T14:26:47.485Z,16.55
2019-05-01T14:29:17.345Z,15.45
2019-05-01T14:32:06.448Z,15.38
2019-05-01T14:34:36.678Z,14.27
2019-05-01T14:37:06.519Z,14.85
2019-05-01T14:39:36.329Z,16.25
2019-05-01T14:42:07.714Z,14.63
2019-05-01T14:44:38.178Z,15.30
2019-05-01T14:47:09.325Z,13.48
2019-05-01T14:49:39.107Z,13.45
2019-05-01T14:52:09.209Z,14.73
2019-05-01T14:54:39.171Z,14.43
2019-05-01T14:57:09.135Z,14.23
2019-05-01T15:02:19.659Z,13.38
2019-05-01T15:04:49.591Z,13.05
2019-05-01T15:07:19.800Z,13.22
2019-05-01T15:09:49.594Z,14.00
2019-05-01T15:12:19.414Z,13.40
2019-05-01T15:14:53.524Z,13.08
2019-05-01T15:17:24.841Z,12.80
2019-05-01T15:19:56.179Z,11.85
2019-05-01T15:22:31.456Z,13.45
2019-05-01T15:25:01.273Z,13.08
2019-05-01T15:27:31.007Z,13.25
2019-05-01T15:30:01.853Z,12.23
2019-05-01T15:35:01.882Z,12.53
2019-05-01T15:37:35.197Z,13.75
2019-05-01T15:40:07.650Z,13.13
2019-05-01T15:42:48.429Z,13.55
2019-05-01T15:45:18.245Z,11.80
2019-05-01T15:47:47.991Z,12.75
2019-05-01T15:50:17.939Z,13.78
2019-05-01T15:52:47.721Z,12.63
2019-05-01T15:55:17.428Z,13.28
2019-05-01T15:57:47.226Z,12.18
2019-05-01T16:00:20.517Z,12.28
2019-05-01T16:02:51.621Z,12.37
2019-05-01T16:05:22.686Z,11.93
2019-05-01T16:07:53.904Z,11.70
2019-05-01T16:10:28.282Z,12.23
2019-05-01T16:13:04.315Z,13.03
2019-05-01T16:15:39.912Z,12.73
2019-05-01T16:18:09.719Z,11.20
2019-05-01T16:20:39.410Z,11.48
2019-05-01T16:23:11.332Z,11.48
2019-05-01T16:25:41.284Z,11.83
2019-05-01T16:28:11.198Z,11.65
2019-05-01T16:30:41.104Z,11.08
2019-05-01T16:33:11.000Z,12.28
2019-05-01T16:35:40.813Z,12.05
2019-05-01T16:38:22.387Z,11.85
2019-05-01T16:40:45.166Z,11.95
2019-05-01T16:43:14.900Z,11.68
2019-05-01T16:45:44.720Z,11.73
2019-05-01T16:48:14.439Z,11.80
2019-05-01T16:50:44.182Z,10.88
2019-05-01T16:53:13.856Z,11.50
2019-05-01T16:55:44.152Z,11.75
2019-05-01T16:58:15.154Z,11.70
2019-05-01T17:01:03.973Z,10.35
2019-05-01T17:03:51.615Z,11.15
2019-05-01T17:06:35.222Z,12.35
2019-05-01T17:09:15.614Z,10.68
2019-05-01T17:11:45.903Z,11.53
2019-05-01T17:14:17.161Z,11.18
2019-05-01T17:19:15.915Z,10.20
2019-05-01T17:21:45.781Z,10.60
2019-05-01T17:24:21.019Z,10.25
2019-05-01T17:26:50.769Z,10.32
2019-05-01T17:29:20.976Z,10.58
2019-05-01T17:31:50.690Z,10.15
2019-05-01T17:34:20.401Z,10.13
2019-05-01T17:36:50.192Z,10.13
2019-05-01T17:39:21.238Z,10.63
2019-05-01T17:41:50.998Z,10.35
2019-05-01T17:44:25.113Z,11.05
2019-05-01T17:46:52.969Z,10.13
2019-05-01T17:49:25.891Z,10.03
2019-05-01T17:51:56.984Z,9.75
2019-05-01T17:54:26.792Z,9.73
2019-05-01T17:56:56.510Z,10.23
2019-05-01T17:59:31.748Z,9.15
2019-05-01T18:02:10.045Z,10.82
2019-05-01T18:04:56.474Z,9.00
2019-05-01T18:07:33.056Z,8.83
2019-05-01T18:10:01.523Z,8.35
2019-05-01T18:12:31.374Z,7.87
2019-05-01T18:15:01.093Z,7.35
2019-05-01T18:17:34.385Z,7.35
2019-05-01T18:20:05.413Z,6.70
2019-05-01T18:22:48.902Z,7.40
2019-05-01T18:25:20.400Z,7.03
2019-05-01T18:28:08.434Z,6.78
2019-05-01T18:30:42.522Z,7.00
2019-05-01T18:33:12.464Z,7.08
2019-05-01T18:35:44.954Z,7.22
2019-05-01T18:38:21.401Z,6.87
2019-05-01T18:40:55.597Z,7.58
2019-05-01T18:43:27.060Z,6.97
2019-05-01T18:45:57.644Z,7.50
2019-05-01T18:48:27.484Z,6.70
2019-05-01T18:50:58.180Z,6.83
2019-05-01T18:53:27.975Z,5.92
2019-05-01T18:56:01.371Z,6.12
2019-05-01T19:00:58.275Z,6.20
2019-05-01T19:03:29.940Z,5.87
2019-05-01T19:05:59.321Z,5.42
2019-05-01T19:08:28.968Z,5.92
2019-05-01T19:11:11.707Z,5.35
2019-05-01T19:13:31.883Z,5.87
2019-05-01T19:16:03.300Z,5.85
2019-05-01T19:18:33.152Z,5.20
2019-05-01T19:21:03.087Z,6.42
2019-05-01T19:23:33.395Z,5.45
2019-05-01T19:26:06.627Z,5.30
2019-05-01T19:28:35.321Z,5.30
2019-05-01T19:31:06.319Z,5.00
2019-05-01T19:33:36.083Z,5.53
2019-05-01T19:36:08.690Z,5.53
2019-05-01T19:38:38.993Z,5.12
2019-05-01T19:41:13.641Z,4.40
2019-05-01T19:43:41.972Z,4.95
2019-05-01T19:46:13.839Z,4.40
2019-05-01T19:48:45.560Z,4.40
2019-05-01T19:51:19.033Z,4.10
2019-05-01T19:53:51.068Z,3.87
2019-05-01T20:01:18.420Z,3.12
2019-05-01T20:03:48.313Z,3.45
2019-05-01T20:06:18.322Z,3.17
2019-05-01T20:08:49.503Z,3.10
2019-05-01T20:11:26.205Z,3.50
2019-05-01T20:13:55.843Z,3.20
2019-05-01T20:16:25.534Z,2.80
2019-05-01T20:18:55.397Z,3.47
2019-05-01T20:21:25.048Z,3.42
2019-05-01T20:23:54.855Z,3.12
2019-05-01T20:26:26.851Z,3.52
2019-05-01T20:28:57.496Z,3.72
2019-05-01T20:31:28.227Z,3.72
2019-05-01T20:36:27.394Z,4.22
2019-05-01T20:38:57.066Z,3.30
2019-05-01T20:41:26.865Z,3.77
2019-05-01T20:43:56.656Z,4.37
2019-05-01T20:46:29.262Z,4.17
2019-05-01T20:49:01.368Z,4.70
2019-05-01T20:51:31.386Z,4.00
2019-05-01T20:54:01.142Z,5.00
2019-05-01T20:56:35.459Z,4.40
2019-05-01T20:59:05.132Z,4.47
2019-05-01T21:01:35.983Z,4.40
2019-05-01T21:04:07.335Z,4.67
2019-05-01T21:06:45.679Z,4.30
2019-05-01T21:09:20.006Z,4.30
2019-05-01T21:12:04.985Z,3.70
2019-05-01T21:14:28.669Z,4.28
2019-05-01T21:16:58.477Z,4.45
2019-05-01T21:19:30.523Z,4.28
2019-05-01T21:21:59.884Z,4.30
2019-05-01T21:24:29.827Z,4.58
2019-05-01T21:27:05.142Z,4.67
2019-05-01T21:29:34.953Z,4.65
2019-05-01T21:32:04.758Z,5.15
2019-05-01T21:34:39.639Z,5.25
2019-05-01T21:37:09.712Z,5.33
2019-05-01T21:39:39.479Z,5.53
2019-05-01T21:42:11.711Z,5.40
2019-05-01T21:44:41.159Z,5.08
2019-05-01T21:47:10.889Z,4.90
2019-05-01T21:49:42.952Z,4.75
2019-05-01T21:52:13.493Z,5.20
2019-05-01T21:54:50.145Z,4.25
2019-05-01T21:57:19.215Z,4.53
2019-05-01T21:59:49.632Z,4.65
2019-05-01T22:02:22.541Z,4.35
2019-05-01T22:04:52.580Z,4.20
2019-05-01T22:07:23.888Z,4.50
2019-05-01T22:09:54.480Z,5.03
2019-05-01T22:12:25.883Z,4.42
2019-05-01T22:15:10.839Z,5.45
2019-05-01T22:17:51.039Z,5.80
2019-05-01T22:20:27.981Z,5.45
2019-05-01T22:22:59.659Z,5.50
2019-05-01T22:25:31.021Z,5.70
2019-05-01T22:28:02.347Z,6.12
2019-05-01T22:33:11.786Z,5.58
2019-05-01T22:35:46.552Z,5.75
2019-05-01T22:38:16.987Z,6.20
2019-05-01T22:41:05.370Z,5.80
2019-05-01T22:43:26.343Z,5.75
2019-05-01T22:46:01.358Z,5.42
2019-05-01T22:48:28.102Z,5.60
2019-05-01T22:50:59.549Z,6.40
2019-05-01T22:53:29.684Z,6.03
2019-05-01T22:56:02.228Z,6.33
2019-05-01T22:58:32.207Z,6.15
2019-05-01T23:01:02.126Z,6.40
2019-05-01T23:03:40.551Z,6.78
2019-05-01T23:06:06.262Z,7.00
2019-05-01T23:08:36.590Z,6.70
2019-05-01T23:11:19.109Z,7.20
2019-05-01T23:13:38.178Z,6.78
2019-05-01T23:16:08.079Z,6.50
2019-05-01T23:18:39.139Z,7.28
2019-05-01T23:21:09.853Z,6.72
2019-05-01T23:26:11.649Z,6.65
2019-05-01T23:28:40.988Z,7.42
2019-05-01T23:31:10.996Z,8.33
2019-05-01T23:33:40.789Z,7.12
2019-05-01T23:36:22.987Z,7.65
2019-05-01T23:38:41.854Z,7.65
2019-05-01T23:41:11.458Z,8.35
2019-05-01T23:43:41.234Z,8.35
2019-05-01T23:46:11.050Z,7.87
2019-05-01T23:48:40.818Z,8.43
2019-05-01T23:51:10.424Z,8.28
2019-05-01T23:53:44.348Z,8.43
2019-05-01T23:58:40.312Z,6.72
